createdAt,value
2022-12-23T00:02:38.677Z,4.06
2022-12-23T00:05:42.053Z,3.97
2022-12-23T00:08:45.399Z,3.95
2022-12-23T00:12:11.487Z,3.96
2022-12-23T00:15:15.061Z,3.92
2022-12-23T00:18:18.637Z,3.95
2022-12-23T00:21:24.016Z,3.95
2022-12-23T00:24:27.312Z,4.01
2022-12-23T00:27:37.196Z,4.04
2022-12-23T00:30:51.419Z,4.04
2022-12-23T00:33:54.547Z,4.06
2022-12-23T00:36:57.867Z,4.10
2022-12-23T00:40:19.322Z,4.01
2022-12-23T00:43:22.769Z,3.98
2022-12-23T00:46:25.836Z,4.00
2022-12-23T00:49:45.315Z,4.03
2022-12-23T00:52:48.310Z,4.14
2022-12-23T00:55:52.871Z,4.05
2022-12-23T00:58:55.965Z,4.10
2022-12-23T01:02:17.860Z,4.10
2022-12-23T01:05:36.665Z,4.07
2022-12-23T01:08:40.069Z,4.14
2022-12-23T01:11:43.468Z,4.18
2022-12-23T01:14:46.713Z,4.20
2022-12-23T01:17:49.654Z,4.13
2022-12-23T01:20:52.912Z,4.21
2022-12-23T01:23:55.916Z,4.31
2022-12-23T01:26:59.778Z,4.36
2022-12-23T01:30:02.749Z,4.34
2022-12-23T01:33:06.012Z,4.47
2022-12-23T01:36:10.708Z,4.57
2022-12-23T01:39:13.919Z,4.70
2022-12-23T01:42:38.106Z,4.76
2022-12-23T01:45:41.594Z,4.71
2022-12-23T01:48:49.740Z,4.72
2022-12-23T01:51:53.129Z,4.69
2022-12-23T01:54:56.631Z,4.78
2022-12-23T01:58:35.104Z,4.61
2022-12-23T02:01:57.175Z,4.54
2022-12-23T02:05:00.860Z,4.47
2022-12-23T02:08:22.532Z,4.49
2022-12-23T02:11:39.443Z,4.42
2022-12-23T02:15:35.560Z,4.50
2022-12-23T02:18:50.822Z,4.61
2022-12-23T02:22:03.509Z,4.56
2022-12-23T02:25:22.593Z,4.64
2022-12-23T02:29:03.215Z,4.61
2022-12-23T02:32:28.679Z,4.72
2022-12-23T02:36:05.614Z,4.83
2022-12-23T02:39:22.788Z,4.73
2022-12-23T02:42:33.803Z,4.62
2022-12-23T02:46:00.913Z,4.51
2022-12-23T02:49:08.143Z,4.53
2022-12-23T02:52:15.630Z,4.56
2022-12-23T02:55:24.596Z,4.57
2022-12-23T02:58:31.947Z,4.61
2022-12-23T03:01:35.213Z,4.73
2022-12-23T03:04:40.563Z,4.75
2022-12-23T03:07:43.979Z,4.72
2022-12-23T03:11:02.859Z,4.71
2022-12-23T03:14:08.770Z,4.65
2022-12-23T03:17:28.366Z,4.59
2022-12-23T03:20:45.922Z,4.47
2022-12-23T03:24:05.358Z,4.40
2022-12-23T03:27:32.469Z,4.34
2022-12-23T03:30:38.288Z,4.33
2022-12-23T03:33:43.898Z,4.28
2022-12-23T03:36:50.534Z,4.36
2022-12-23T03:39:57.992Z,4.46
2022-12-23T03:43:23.448Z,4.56
2022-12-23T03:46:32.635Z,4.59
2022-12-23T03:49:40.468Z,4.66
2022-12-23T03:52:49.209Z,4.69
2022-12-23T03:55:56.696Z,4.72
2022-12-23T03:59:22.103Z,4.67
2022-12-23T04:02:36.645Z,4.57
2022-12-23T04:05:42.114Z,4.32
2022-12-23T04:08:47.824Z,4.14
2022-12-23T04:11:51.650Z,4.16
2022-12-23T04:14:54.719Z,4.13
2022-12-23T04:17:58.809Z,4.19
2022-12-23T04:21:01.818Z,4.11
2022-12-23T04:24:05.329Z,4.06
2022-12-23T04:27:11.137Z,3.99
2022-12-23T04:30:14.934Z,3.92
2022-12-23T04:33:17.873Z,3.93
2022-12-23T04:36:21.095Z,3.96
2022-12-23T04:39:24.248Z,4.00
2022-12-23T04:42:27.570Z,3.94
2022-12-23T04:45:30.424Z,3.97
2022-12-23T04:48:33.539Z,3.86
2022-12-23T04:51:36.527Z,3.81
2022-12-23T04:54:46.063Z,3.83
2022-12-23T04:57:49.470Z,3.89
2022-12-23T05:01:07.819Z,3.96
2022-12-23T05:04:11.232Z,3.99
2022-12-23T05:07:14.513Z,4.01
2022-12-23T05:10:17.549Z,4.03
2022-12-23T05:13:20.810Z,3.96
2022-12-23T05:16:24.082Z,3.89
2022-12-23T05:19:27.486Z,3.91
2022-12-23T05:22:31.690Z,3.94
2022-12-23T05:25:37.557Z,3.93
2022-12-23T05:28:40.623Z,3.92
2022-12-23T05:31:44.992Z,3.91
2022-12-23T05:34:47.927Z,3.88
2022-12-23T05:37:51.671Z,3.87
2022-12-23T05:40:54.833Z,3.87
2022-12-23T05:43:57.993Z,3.70
2022-12-23T05:47:01.085Z,3.68
2022-12-23T05:50:04.915Z,3.78
2022-12-23T05:53:08.425Z,3.74
2022-12-23T05:56:12.088Z,3.73
2022-12-23T05:59:14.983Z,3.77
2022-12-23T06:02:18.660Z,3.71
2022-12-23T06:05:22.490Z,3.62
2022-12-23T06:08:25.981Z,3.60
2022-12-23T06:11:30.979Z,3.61
2022-12-23T06:14:33.927Z,3.55
2022-12-23T06:17:38.519Z,3.53
2022-12-23T06:20:41.508Z,3.52
2022-12-23T06:23:44.757Z,3.37
2022-12-23T06:26:51.890Z,3.14
2022-12-23T06:29:58.262Z,3.33
2022-12-23T06:33:01.160Z,3.37
2022-12-23T06:36:04.966Z,3.31
2022-12-23T06:39:09.467Z,3.34
2022-12-23T06:42:12.727Z,3.43
2022-12-23T06:45:15.748Z,3.48
2022-12-23T06:48:19.041Z,3.51
2022-12-23T06:51:22.090Z,3.53
2022-12-23T06:54:25.347Z,3.56
2022-12-23T06:57:28.290Z,3.45
2022-12-23T07:00:31.892Z,3.26
2022-12-23T07:03:36.485Z,3.29
2022-12-23T07:06:41.241Z,3.40
2022-12-23T07:09:44.484Z,3.39
2022-12-23T07:12:50.942Z,3.49
2022-12-23T07:15:54.175Z,3.62
2022-12-23T07:18:57.427Z,3.51
2022-12-23T07:22:00.393Z,3.24
2022-12-23T07:25:04.019Z,3.29
2022-12-23T07:28:07.304Z,3.13
2022-12-23T07:31:10.954Z,3.16
2022-12-23T07:34:13.904Z,3.17
2022-12-23T07:37:17.122Z,2.98
2022-12-23T07:40:20.346Z,3.17
2022-12-23T07:43:23.627Z,3.11
2022-12-23T07:46:26.595Z,2.96
2022-12-23T07:49:29.978Z,3.00
2022-12-23T07:52:32.964Z,3.07
2022-12-23T07:55:36.765Z,3.30
2022-12-23T07:58:40.807Z,3.45
2022-12-23T08:01:44.404Z,3.62
2022-12-23T08:04:47.709Z,3.74
2022-12-23T08:07:52.147Z,3.92
2022-12-23T08:11:03.969Z,3.88
2022-12-23T08:14:08.356Z,3.78
2022-12-23T08:17:12.513Z,3.64
2022-12-23T08:20:15.622Z,3.46
2022-12-23T08:23:24.585Z,3.16
2022-12-23T08:26:27.927Z,3.08
2022-12-23T08:29:36.256Z,2.96
2022-12-23T08:32:39.552Z,2.91
2022-12-23T08:35:43.942Z,2.86
2022-12-23T08:38:47.113Z,2.93
2022-12-23T08:41:51.465Z,2.79
2022-12-23T08:44:54.528Z,2.97
2022-12-23T08:47:57.806Z,3.24
2022-12-23T08:51:06.377Z,3.37
2022-12-23T08:54:10.383Z,3.59
2022-12-23T08:57:13.361Z,3.73
2022-12-23T09:00:16.787Z,3.68
2022-12-23T09:03:19.809Z,3.96
2022-12-23T09:06:29.885Z,4.29
2022-12-23T09:09:33.528Z,4.38
2022-12-23T09:12:36.776Z,4.28
2022-12-23T09:15:44.298Z,4.17
2022-12-23T09:18:47.797Z,4.12
2022-12-23T09:21:50.807Z,4.10
2022-12-23T09:24:59.885Z,4.45
2022-12-23T09:28:09.884Z,4.87
2022-12-23T09:31:13.568Z,5.07
2022-12-23T09:34:16.682Z,4.89
2022-12-23T09:37:20.468Z,4.85
2022-12-23T09:40:23.702Z,4.66
2022-12-23T09:43:39.751Z,4.70
2022-12-23T09:46:50.835Z,5.18
2022-12-23T09:50:02.794Z,5.20
2022-12-23T09:53:08.562Z,5.07
2022-12-23T09:56:36.924Z,5.12
2022-12-23T09:59:49.034Z,5.02
2022-12-23T10:03:04.729Z,4.51
2022-12-23T10:06:20.760Z,4.44
2022-12-23T10:09:23.962Z,4.11
2022-12-23T10:12:40.092Z,4.10
2022-12-23T10:15:47.445Z,4.28
2022-12-23T10:19:04.962Z,4.59
2022-12-23T10:22:43.721Z,4.59
2022-12-23T10:25:52.442Z,4.66
2022-12-23T10:29:00.569Z,4.74
2022-12-23T10:32:31.804Z,4.44
2022-12-23T10:35:45.916Z,4.76
2022-12-23T10:39:20.256Z,4.68
2022-12-23T10:42:31.872Z,4.97
2022-12-23T10:45:47.646Z,4.62
2022-12-23T10:49:04.433Z,4.33
2022-12-23T10:52:21.064Z,4.33
2022-12-23T10:55:34.043Z,4.19
2022-12-23T10:58:41.935Z,3.96
2022-12-23T11:01:48.002Z,3.90
2022-12-23T11:04:51.495Z,3.71
2022-12-23T11:07:55.567Z,3.59
2022-12-23T11:11:01.513Z,3.72
2022-12-23T11:14:05.836Z,3.77
2022-12-23T11:17:25.571Z,3.75
2022-12-23T11:20:28.863Z,3.81
2022-12-23T11:23:36.570Z,3.87
2022-12-23T11:26:39.713Z,3.96
2022-12-23T11:29:49.804Z,4.11
2022-12-23T11:32:52.847Z,4.16
2022-12-23T11:36:08.688Z,4.31
2022-12-23T11:39:23.868Z,4.42
2022-12-23T11:42:30.483Z,4.60
2022-12-23T11:45:36.657Z,4.76
2022-12-23T11:48:40.179Z,4.70
2022-12-23T11:51:47.068Z,4.83
2022-12-23T11:54:57.241Z,4.82
2022-12-23T11:58:06.086Z,4.83
2022-12-23T12:01:17.289Z,4.86
2022-12-23T12:04:22.764Z,4.70
2022-12-23T12:07:26.375Z,4.80
2022-12-23T12:10:33.460Z,4.72
2022-12-23T12:13:44.710Z,4.88
2022-12-23T12:16:58.681Z,4.94
2022-12-23T12:20:18.544Z,4.59
2022-12-23T12:23:27.453Z,4.72
2022-12-23T12:26:33.986Z,4.66
2022-12-23T12:29:40.635Z,4.35
2022-12-23T12:33:21.509Z,4.47
2022-12-23T12:36:27.842Z,4.33
2022-12-23T12:39:38.773Z,4.24
2022-12-23T12:42:47.315Z,4.34
2022-12-23T12:46:06.554Z,4.20
2022-12-23T12:49:24.900Z,4.10
2022-12-23T12:52:28.501Z,3.86
2022-12-23T12:55:42.527Z,3.90
2022-12-23T12:58:46.798Z,3.98
2022-12-23T13:01:57.371Z,4.14
2022-12-23T13:05:28.586Z,4.14
2022-12-23T13:08:31.752Z,3.85
2022-12-23T13:11:54.498Z,3.83
2022-12-23T13:15:03.878Z,3.99
2022-12-23T13:18:37.291Z,4.05
2022-12-23T13:21:47.299Z,4.13
2022-12-23T13:25:18.365Z,4.07
2022-12-23T13:28:42.397Z,4.07
2022-12-23T13:32:18.997Z,4.14
2022-12-23T13:35:32.312Z,4.20
2022-12-23T13:38:47.201Z,4.20
2022-12-23T13:41:52.487Z,4.22
2022-12-23T13:44:56.797Z,4.19
2022-12-23T13:48:18.244Z,4.30
2022-12-23T13:51:27.114Z,4.40
2022-12-23T13:54:39.285Z,4.28
2022-12-23T13:57:54.017Z,4.16
2022-12-23T14:01:03.392Z,4.30
2022-12-23T14:04:32.752Z,4.44
2022-12-23T14:07:35.873Z,4.56
2022-12-23T14:10:39.268Z,4.58
2022-12-23T14:13:51.739Z,4.55
2022-12-23T14:17:07.225Z,4.55
2022-12-23T14:20:18.809Z,4.56
2022-12-23T14:23:27.676Z,4.57
2022-12-23T14:27:01.509Z,4.57
2022-12-23T14:30:17.437Z,4.60
2022-12-23T14:33:23.277Z,4.62
2022-12-23T14:36:26.789Z,4.59
2022-12-23T14:39:32.400Z,4.61
2022-12-23T14:42:42.404Z,4.57
2022-12-23T14:45:45.294Z,4.58
2022-12-23T14:48:48.431Z,4.58
2022-12-23T14:51:51.522Z,4.61
2022-12-23T14:55:27.988Z,4.58
2022-12-23T14:58:17.409Z,4.62
2022-12-23T15:01:32.079Z,4.62
2022-12-23T15:04:56.769Z,4.52
2022-12-23T15:07:59.732Z,4.60
2022-12-23T15:11:02.902Z,4.45
2022-12-23T15:14:11.147Z,4.53
2022-12-23T15:17:18.755Z,4.41
2022-12-23T15:20:26.681Z,4.42
2022-12-23T15:23:29.854Z,4.45
2022-12-23T15:26:33.476Z,4.41
2022-12-23T15:29:36.453Z,4.46
2022-12-23T15:32:42.309Z,4.44
2022-12-23T15:35:46.075Z,4.45
2022-12-23T15:38:49.316Z,4.44
2022-12-23T15:41:52.228Z,4.45
2022-12-23T15:44:55.801Z,4.49
2022-12-23T15:47:58.861Z,4.24
2022-12-23T15:51:50.015Z,4.21
2022-12-23T15:55:03.592Z,4.25
2022-12-23T15:58:06.996Z,4.29
2022-12-23T16:01:15.013Z,4.32
2022-12-23T16:04:28.942Z,4.29
2022-12-23T16:07:32.722Z,4.34
2022-12-23T16:10:36.094Z,4.34
2022-12-23T16:13:43.117Z,4.34
2022-12-23T16:16:52.562Z,4.35
2022-12-23T16:19:58.241Z,4.40
2022-12-23T16:23:03.174Z,4.38
2022-12-23T16:26:06.329Z,4.29
2022-12-23T16:29:10.929Z,4.22
2022-12-23T16:32:17.242Z,4.29
2022-12-23T16:35:36.259Z,4.23
2022-12-23T16:38:39.220Z,4.14
2022-12-23T16:41:42.638Z,4.11
2022-12-23T16:44:45.659Z,4.10
2022-12-23T16:47:49.499Z,4.06
2022-12-23T16:50:52.841Z,4.03
2022-12-23T16:54:00.631Z,4.06
2022-12-23T16:57:03.841Z,4.06
2022-12-23T17:00:07.861Z,4.09
2022-12-23T17:03:17.216Z,4.09
2022-12-23T17:06:21.053Z,4.14
2022-12-23T17:09:24.575Z,4.15
2022-12-23T17:12:28.501Z,4.20
2022-12-23T17:15:31.814Z,4.24
2022-12-23T17:18:35.567Z,4.33
2022-12-23T17:21:39.891Z,4.29
2022-12-23T17:24:43.206Z,4.28
2022-12-23T17:27:46.294Z,4.29
2022-12-23T17:30:54.698Z,4.28
2022-12-23T17:33:57.789Z,4.33
2022-12-23T17:37:02.112Z,4.32
2022-12-23T17:40:05.751Z,4.28
2022-12-23T17:43:16.508Z,4.32
2022-12-23T17:46:19.573Z,4.32
2022-12-23T17:49:22.717Z,4.32
2022-12-23T17:52:25.451Z,4.30
2022-12-23T17:55:29.412Z,4.28
2022-12-23T17:58:32.288Z,4.26
2022-12-23T18:01:35.693Z,4.24
2022-12-23T18:04:39.715Z,4.14
2022-12-23T18:07:42.703Z,4.03
2022-12-23T18:10:46.205Z,4.01
2022-12-23T18:13:51.664Z,3.99
2022-12-23T18:16:55.800Z,3.94
2022-12-23T18:19:58.963Z,3.84
2022-12-23T18:23:03.027Z,3.89
2022-12-23T18:26:06.139Z,3.95
2022-12-23T18:29:09.385Z,3.89
2022-12-23T18:32:19.754Z,3.83
2022-12-23T18:35:31.770Z,3.84
2022-12-23T18:38:35.134Z,3.82
2022-12-23T18:41:38.341Z,3.97
2022-12-23T18:44:42.877Z,4.23
2022-12-23T18:47:46.519Z,4.38
2022-12-23T18:50:49.619Z,4.37
2022-12-23T18:53:52.873Z,4.32
2022-12-23T18:56:55.959Z,4.28
2022-12-23T18:59:59.230Z,4.29
2022-12-23T19:03:02.497Z,4.42
2022-12-23T19:06:07.860Z,4.36
2022-12-23T19:09:19.707Z,4.10
2022-12-23T19:12:23.085Z,4.11
2022-12-23T19:15:26.811Z,4.10
2022-12-23T19:18:30.085Z,4.15
2022-12-23T19:21:33.562Z,4.21
2022-12-23T19:24:42.522Z,4.15
2022-12-23T19:27:55.393Z,3.94
2022-12-23T19:30:58.667Z,4.11
2022-12-23T19:34:01.909Z,3.96
2022-12-23T19:37:05.309Z,3.97
2022-12-23T19:40:09.157Z,3.91
2022-12-23T19:43:12.740Z,4.01
2022-12-23T19:46:17.014Z,3.96
2022-12-23T19:49:20.631Z,4.09
2022-12-23T19:52:23.624Z,3.65
2022-12-23T19:55:27.001Z,3.71
2022-12-23T19:58:35.875Z,3.72
2022-12-23T20:01:39.516Z,3.73
2022-12-23T20:04:43.621Z,3.69
2022-12-23T20:07:47.543Z,3.51
2022-12-23T20:10:52.616Z,3.36
2022-12-23T20:13:56.161Z,3.42
2022-12-23T20:17:00.357Z,3.34
2022-12-23T20:20:03.817Z,3.39
2022-12-23T20:23:07.436Z,3.40
2022-12-23T20:26:12.438Z,3.43
2022-12-23T20:29:16.109Z,3.45
2022-12-23T20:32:19.824Z,3.47
2022-12-23T20:35:23.323Z,3.56
2022-12-23T20:38:26.239Z,3.62
2022-12-23T20:41:31.301Z,3.71
2022-12-23T20:44:36.035Z,3.81
2022-12-23T20:47:40.290Z,3.95
2022-12-23T20:50:43.589Z,4.24
2022-12-23T20:53:47.374Z,4.53
2022-12-23T20:56:50.645Z,4.56
2022-12-23T20:59:54.194Z,4.47
2022-12-23T21:02:57.971Z,4.35
2022-12-23T21:06:01.341Z,4.32
2022-12-23T21:09:06.962Z,4.34
2022-12-23T21:12:10.597Z,4.53
2022-12-23T21:15:13.626Z,4.40
2022-12-23T21:18:17.428Z,4.37
2022-12-23T21:21:22.404Z,4.31
2022-12-23T21:24:25.851Z,4.26
2022-12-23T21:27:28.677Z,4.29
2022-12-23T21:30:31.847Z,4.34
2022-12-23T21:33:39.650Z,4.43
2022-12-23T21:36:43.133Z,4.56
2022-12-23T21:39:46.131Z,4.79
2022-12-23T21:42:49.579Z,5.04
2022-12-23T21:45:59.732Z,5.23
2022-12-23T21:49:03.072Z,5.27
2022-12-23T21:52:06.013Z,5.31
2022-12-23T21:55:09.625Z,5.26
2022-12-23T21:58:13.072Z,5.20
2022-12-23T22:01:20.854Z,5.26
2022-12-23T22:04:24.207Z,5.29
2022-12-23T22:07:27.177Z,5.32
2022-12-23T22:10:31.035Z,5.29
2022-12-23T22:13:33.957Z,5.26
2022-12-23T22:16:37.940Z,5.29
2022-12-23T22:19:41.250Z,5.25
2022-12-23T22:22:44.637Z,5.12
2022-12-23T22:25:54.867Z,5.13
2022-12-23T22:29:00.474Z,5.16
2022-12-23T22:32:03.383Z,5.19
2022-12-23T22:35:06.875Z,5.32
2022-12-23T22:38:10.172Z,5.44
2022-12-23T22:41:15.662Z,5.39
2022-12-23T22:44:19.482Z,5.17
2022-12-23T22:47:22.835Z,4.99
2022-12-23T22:50:26.000Z,4.77
2022-12-23T22:53:29.947Z,4.70
2022-12-23T22:56:33.053Z,4.74
2022-12-23T22:59:36.367Z,4.83
2022-12-23T23:02:39.408Z,4.71
2022-12-23T23:05:42.754Z,4.68
2022-12-23T23:08:46.947Z,4.63
2022-12-23T23:11:50.352Z,4.70
2022-12-23T23:14:53.650Z,4.68
2022-12-23T23:17:56.965Z,4.65
2022-12-23T23:21:00.180Z,4.81
2022-12-23T23:24:04.689Z,5.05
2022-12-23T23:27:07.667Z,5.19
2022-12-23T23:30:11.137Z,5.22
2022-12-23T23:33:14.169Z,5.32
2022-12-23T23:36:17.456Z,5.30
2022-12-23T23:39:20.423Z,5.43
2022-12-23T23:42:23.844Z,5.47
2022-12-23T23:45:27.673Z,5.54
2022-12-23T23:48:31.011Z,5.58
2022-12-23T23:51:35.102Z,5.59
2022-12-23T23:54:39.830Z,5.65
2022-12-23T23:57:42.732Z,5.62
